createdAt,value
2022-12-19T01:36:27.151Z,-6.93
2022-12-19T01:38:58.374Z,-6.93
2022-12-19T01:41:27.392Z,-7.29
2022-12-19T01:43:58.092Z,-7.27
2022-12-19T01:46:49.191Z,-7.29
2022-12-19T01:49:30.629Z,-7.27
2022-12-19T01:52:00.255Z,-7.27
2022-12-19T01:54:35.268Z,-7.29
2022-12-19T01:57:04.442Z,-7.32
2022-12-19T01:59:36.555Z,-7.32
2022-12-19T02:02:11.096Z,-7.44
2022-12-19T02:04:40.693Z,-7.34
2022-12-19T02:07:15.778Z,-7.35
2022-12-19T02:09:47.640Z,-7.31
2022-12-19T02:12:26.276Z,-7.39
2022-12-19T02:14:59.050Z,-7.32
2022-12-19T02:18:01.214Z,-7.39
2022-12-19T02:21:03.945Z,-7.28
2022-12-19T02:23:53.083Z,-7.27
2022-12-19T02:26:43.336Z,-7.27
2022-12-19T02:29:40.629Z,-7.24
2022-12-19T02:32:25.821Z,-7.24
2022-12-19T02:35:17.755Z,-7.24
2022-12-19T02:37:50.669Z,-7.32
2022-12-19T02:40:40.137Z,-7.20
2022-12-19T02:43:09.035Z,-7.28
2022-12-19T02:45:38.256Z,-7.19
2022-12-19T02:48:08.999Z,-7.19
2022-12-19T02:50:42.284Z,-7.18
2022-12-19T02:53:14.106Z,-7.13
2022-12-19T02:55:50.563Z,-7.20
2022-12-19T02:58:27.510Z,-7.08
2022-12-19T03:01:10.858Z,-7.08
2022-12-19T03:14:48.050Z,-6.18
2022-12-19T03:17:21.694Z,-6.18
2022-12-19T03:19:48.431Z,-6.54
2022-12-19T03:22:15.494Z,-6.53
2022-12-19T03:24:42.175Z,-6.54
2022-12-19T03:27:13.150Z,-6.65
2022-12-19T03:29:46.629Z,-6.55
2022-12-19T03:32:15.416Z,-6.55
2022-12-19T03:34:50.407Z,-6.68
2022-12-19T03:37:22.423Z,-6.60
2022-12-19T03:39:51.709Z,-6.62
2022-12-19T03:42:39.839Z,-6.61
2022-12-19T03:45:07.394Z,-6.61
2022-12-19T03:47:42.127Z,-6.63
2022-12-19T03:50:09.900Z,-6.68
2022-12-19T03:52:55.210Z,-6.66
2022-12-19T03:55:41.263Z,-6.77
2022-12-19T03:58:12.331Z,-6.66
2022-12-19T04:00:47.475Z,-6.65
2022-12-19T04:03:17.681Z,-6.63
2022-12-19T04:05:47.369Z,-6.65
2022-12-19T04:08:15.829Z,-6.65
2022-12-19T04:10:48.938Z,-6.67
2022-12-19T04:13:30.147Z,-6.64
2022-12-19T04:16:15.323Z,-6.73
2022-12-19T04:18:47.655Z,-6.63
2022-12-19T04:21:25.963Z,-6.62
2022-12-19T04:24:08.152Z,-6.59
2022-12-19T04:26:37.194Z,-6.60
2022-12-19T18:59:39.779Z,-4.73
2022-12-19T19:02:25.338Z,-4.73
2022-12-19T19:04:55.599Z,-5.10
2022-12-19T19:07:22.526Z,-5.23
2022-12-19T19:09:49.134Z,-5.11
2022-12-19T19:12:17.084Z,-5.12
2022-12-19T19:14:44.080Z,-5.14
2022-12-19T19:17:27.145Z,-5.29
2022-12-19T19:19:54.947Z,-5.20
2022-12-19T19:22:21.637Z,-5.28
2022-12-19T19:24:48.254Z,-5.27
2022-12-19T19:27:15.152Z,-5.41
2022-12-19T19:29:41.794Z,-5.34
2022-12-19T19:32:08.566Z,-5.39
2022-12-19T19:34:37.309Z,-5.37
2022-12-19T19:37:07.912Z,-5.47
2022-12-19T19:39:35.109Z,-5.52
2022-12-19T19:42:02.327Z,-5.43
2022-12-19T19:44:29.915Z,-5.45
2022-12-19T19:46:56.943Z,-5.57
2022-12-19T19:49:23.975Z,-5.47
2022-12-19T19:51:52.356Z,-5.48
2022-12-19T19:54:22.563Z,-5.50
2022-12-19T19:56:49.247Z,-5.60
2022-12-19T19:59:15.911Z,-5.52
2022-12-19T20:01:43.251Z,-5.54
2022-12-19T20:04:10.281Z,-5.52
2022-12-19T20:06:36.936Z,-5.65
2022-12-19T20:09:04.109Z,-5.73
2022-12-19T20:11:31.027Z,-5.53
2022-12-19T20:13:57.675Z,-5.52
2022-12-19T20:16:24.928Z,-5.57
2022-12-19T20:18:53.027Z,-5.65
2022-12-19T20:21:20.709Z,-5.57
2022-12-19T20:23:47.465Z,-5.57
2022-12-19T20:26:16.467Z,-5.58
2022-12-19T20:28:49.141Z,-5.58
2022-12-19T20:31:22.553Z,-5.60
2022-12-19T20:33:50.651Z,-5.65
2022-12-19T20:36:18.180Z,-5.74
2022-12-19T20:38:45.131Z,-5.66
2022-12-19T20:41:12.119Z,-5.64
2022-12-19T20:43:39.172Z,-5.75
2022-12-19T20:46:17.757Z,-5.77
2022-12-19T20:48:45.554Z,-5.67
2022-12-19T20:51:13.698Z,-5.65
2022-12-19T20:53:41.682Z,-5.72
2022-12-19T20:56:12.970Z,-5.58
2022-12-19T20:58:39.787Z,-5.54
2022-12-19T21:01:10.637Z,-5.66
2022-12-19T21:03:38.597Z,-5.56
2022-12-19T21:06:06.461Z,-5.56
2022-12-19T21:08:34.454Z,-5.66
2022-12-19T21:11:02.915Z,-5.55
2022-12-19T21:13:29.746Z,-5.53
2022-12-19T21:15:58.739Z,-5.56
2022-12-19T21:18:26.730Z,-5.50
2022-12-19T21:20:54.313Z,-5.61
2022-12-19T21:23:22.815Z,-5.56
2022-12-19T21:25:49.931Z,-5.54
2022-12-19T21:28:16.672Z,-5.56
2022-12-19T21:30:43.368Z,-5.57
2022-12-19T21:33:10.886Z,-5.58
2022-12-19T21:35:40.288Z,-5.59
2022-12-19T21:38:06.985Z,-5.60
2022-12-19T21:40:36.427Z,-5.61
2022-12-19T21:43:09.645Z,-5.78
2022-12-19T21:45:38.561Z,-5.59
2022-12-19T21:48:05.319Z,-5.58
2022-12-19T21:50:33.562Z,-5.60
2022-12-19T21:53:01.100Z,-5.61
2022-12-19T21:55:27.867Z,-5.60
2022-12-19T21:57:54.436Z,-5.73
2022-12-19T22:00:21.607Z,-5.63
2022-12-19T22:03:12.122Z,-5.62
2022-12-19T22:05:35.717Z,-5.62
2022-12-19T22:08:02.575Z,-5.63
2022-12-19T22:10:29.187Z,-5.70
2022-12-19T22:12:55.870Z,-5.68
2022-12-19T22:15:22.809Z,-5.58
2022-12-19T22:17:49.777Z,-5.58
2022-12-19T22:20:16.449Z,-5.59
2022-12-19T22:22:43.356Z,-5.67
2022-12-19T22:25:10.122Z,-5.65
2022-12-19T22:27:36.801Z,-5.56
2022-12-19T22:30:10.682Z,-5.56
2022-12-19T22:32:37.943Z,-5.56
2022-12-19T22:35:05.434Z,-5.65
2022-12-19T22:37:32.103Z,-5.66
2022-12-19T22:40:00.428Z,-5.60
